sensor_id;sensor_type;location;lat;lon;timestamp;temperature;humidity
19646;DHT22;9971;52.446;13.452;2022-11-20T00:04:20;16.40;78.00
19646;DHT22;9971;52.446;13.452;2022-11-20T00:09:22;16.30;78.90
19646;DHT22;9971;52.446;13.452;2022-11-20T00:14:25;16.30;79.40
19646;DHT22;9971;52.446;13.452;2022-11-20T00:19:27;16.20;78.70
19646;DHT22;9971;52.446;13.452;2022-11-20T00:24:30;16.20;77.20
19646;DHT22;9971;52.446;13.452;2022-11-20T00:29:32;16.20;79.30
19646;DHT22;9971;52.446;13.452;2022-11-20T00:34:35;16.10;79.20
19646;DHT22;9971;52.446;13.452;2022-11-20T00:39:37;16.10;78.50
19646;DHT22;9971;52.446;13.452;2022-11-20T00:44:39;16.10;77.80
19646;DHT22;9971;52.446;13.452;2022-11-20T00:49:42;16.10;78.70
19646;DHT22;9971;52.446;13.452;2022-11-20T00:54:44;16.10;78.70
19646;DHT22;9971;52.446;13.452;2022-11-20T00:59:47;16.10;78.40
19646;DHT22;9971;52.446;13.452;2022-11-20T01:04:49;16.10;77.20
19646;DHT22;9971;52.446;13.452;2022-11-20T01:09:52;16.10;76.90
19646;DHT22;9971;52.446;13.452;2022-11-20T01:14:54;16.10;77.10
19646;DHT22;9971;52.446;13.452;2022-11-20T01:19:57;16.00;76.90
19646;DHT22;9971;52.446;13.452;2022-11-20T01:24:59;16.10;77.00
19646;DHT22;9971;52.446;13.452;2022-11-20T01:30:02;16.10;77.10
19646;DHT22;9971;52.446;13.452;2022-11-20T01:35:04;16.00;77.00
19646;DHT22;9971;52.446;13.452;2022-11-20T01:40:08;16.00;76.40
19646;DHT22;9971;52.446;13.452;2022-11-20T01:50:24;15.90;77.70
19646;DHT22;9971;52.446;13.452;2022-11-20T01:55:28;15.90;77.00
19646;DHT22;9971;52.446;13.452;2022-11-20T02:00:28;15.90;77.00
19646;DHT22;9971;52.446;13.452;2022-11-20T02:05:35;15.90;77.80
19646;DHT22;9971;52.446;13.452;2022-11-20T02:10:36;16.00;78.20
19646;DHT22;9971;52.446;13.452;2022-11-20T02:15:39;16.00;78.10
19646;DHT22;9971;52.446;13.452;2022-11-20T02:20:42;16.00;78.40
19646;DHT22;9971;52.446;13.452;2022-11-20T02:25:43;16.00;77.20
19646;DHT22;9971;52.446;13.452;2022-11-20T02:30:46;16.00;76.90
19646;DHT22;9971;52.446;13.452;2022-11-20T02:35:48;16.10;77.10
19646;DHT22;9971;52.446;13.452;2022-11-20T02:40:51;16.10;76.10
19646;DHT22;9971;52.446;13.452;2022-11-20T02:45:53;16.10;76.70
19646;DHT22;9971;52.446;13.452;2022-11-20T02:50:56;16.10;76.40
19646;DHT22;9971;52.446;13.452;2022-11-20T02:55:58;16.10;77.00
19646;DHT22;9971;52.446;13.452;2022-11-20T03:01:01;16.10;76.60
19646;DHT22;9971;52.446;13.452;2022-11-20T03:06:03;16.10;76.30
19646;DHT22;9971;52.446;13.452;2022-11-20T03:11:06;16.10;75.80
19646;DHT22;9971;52.446;13.452;2022-11-20T03:16:10;16.10;76.70
19646;DHT22;9971;52.446;13.452;2022-11-20T03:21:11;16.20;76.10
19646;DHT22;9971;52.446;13.452;2022-11-20T03:26:23;16.20;76.30
19646;DHT22;9971;52.446;13.452;2022-11-20T03:31:26;16.10;75.30
19646;DHT22;9971;52.446;13.452;2022-11-20T03:36:27;16.20;75.10
19646;DHT22;9971;52.446;13.452;2022-11-20T03:41:29;16.20;75.70
19646;DHT22;9971;52.446;13.452;2022-11-20T03:46:31;16.20;76.10
19646;DHT22;9971;52.446;13.452;2022-11-20T03:51:33;16.20;75.20
19646;DHT22;9971;52.446;13.452;2022-11-20T03:56:36;16.20;75.40
19646;DHT22;9971;52.446;13.452;2022-11-20T04:01:37;16.20;75.60
19646;DHT22;9971;52.446;13.452;2022-11-20T04:06:40;16.20;75.50
19646;DHT22;9971;52.446;13.452;2022-11-20T04:11:42;16.20;76.60
19646;DHT22;9971;52.446;13.452;2022-11-20T04:16:45;16.30;76.80
19646;DHT22;9971;52.446;13.452;2022-11-20T04:21:47;16.30;78.60
19646;DHT22;9971;52.446;13.452;2022-11-20T04:26:49;16.30;78.20
19646;DHT22;9971;52.446;13.452;2022-11-20T04:31:51;16.30;77.80
19646;DHT22;9971;52.446;13.452;2022-11-20T04:36:54;16.30;76.40
19646;DHT22;9971;52.446;13.452;2022-11-20T04:41:57;16.30;74.60
19646;DHT22;9971;52.446;13.452;2022-11-20T04:47:05;16.30;74.20
19646;DHT22;9971;52.446;13.452;2022-11-20T04:52:07;16.30;73.60
19646;DHT22;9971;52.446;13.452;2022-11-20T04:57:10;16.30;74.90
19646;DHT22;9971;52.446;13.452;2022-11-20T05:02:12;16.30;75.70
19646;DHT22;9971;52.446;13.452;2022-11-20T05:07:14;16.30;75.90
19646;DHT22;9971;52.446;13.452;2022-11-20T05:12:17;16.30;76.80
19646;DHT22;9971;52.446;13.452;2022-11-20T05:17:19;16.30;74.50
19646;DHT22;9971;52.446;13.452;2022-11-20T05:22:21;16.20;72.30
19646;DHT22;9971;52.446;13.452;2022-11-20T05:27:24;16.20;74.10
19646;DHT22;9971;52.446;13.452;2022-11-20T05:32:27;16.20;73.90
19646;DHT22;9971;52.446;13.452;2022-11-20T05:37:29;16.20;73.80
19646;DHT22;9971;52.446;13.452;2022-11-20T05:42:32;16.20;73.90
19646;DHT22;9971;52.446;13.452;2022-11-20T05:47:34;16.20;75.20
19646;DHT22;9971;52.446;13.452;2022-11-20T05:52:36;16.10;74.00
19646;DHT22;9971;52.446;13.452;2022-11-20T05:57:38;16.20;72.80
19646;DHT22;9971;52.446;13.452;2022-11-20T06:02:41;16.10;73.60
19646;DHT22;9971;52.446;13.452;2022-11-20T06:07:43;16.10;74.50
19646;DHT22;9971;52.446;13.452;2022-11-20T06:12:46;16.10;74.80
19646;DHT22;9971;52.446;13.452;2022-11-20T06:17:51;16.10;75.20
19646;DHT22;9971;52.446;13.452;2022-11-20T06:22:50;16.10;75.40
19646;DHT22;9971;52.446;13.452;2022-11-20T06:27:53;16.10;74.10
19646;DHT22;9971;52.446;13.452;2022-11-20T06:32:55;16.10;74.30
19646;DHT22;9971;52.446;13.452;2022-11-20T06:37:58;16.10;74.30
19646;DHT22;9971;52.446;13.452;2022-11-20T06:43:00;16.10;74.50
19646;DHT22;9971;52.446;13.452;2022-11-20T06:48:03;16.10;74.30
19646;DHT22;9971;52.446;13.452;2022-11-20T06:53:05;16.10;73.50
19646;DHT22;9971;52.446;13.452;2022-11-20T06:58:07;16.10;73.60
19646;DHT22;9971;52.446;13.452;2022-11-20T07:03:10;16.10;73.60
19646;DHT22;9971;52.446;13.452;2022-11-20T07:08:12;16.10;73.90
19646;DHT22;9971;52.446;13.452;2022-11-20T07:13:14;16.00;73.90
19646;DHT22;9971;52.446;13.452;2022-11-20T07:18:16;16.10;73.60
19646;DHT22;9971;52.446;13.452;2022-11-20T07:23:19;16.00;72.10
19646;DHT22;9971;52.446;13.452;2022-11-20T07:28:21;15.90;73.00
19646;DHT22;9971;52.446;13.452;2022-11-20T07:33:24;15.80;72.20
19646;DHT22;9971;52.446;13.452;2022-11-20T07:38:26;15.80;72.70
19646;DHT22;9971;52.446;13.452;2022-11-20T07:43:29;15.80;73.00
19646;DHT22;9971;52.446;13.452;2022-11-20T07:48:30;15.80;73.40
19646;DHT22;9971;52.446;13.452;2022-11-20T07:53:33;15.80;74.40
19646;DHT22;9971;52.446;13.452;2022-11-20T07:58:35;15.80;73.20
19646;DHT22;9971;52.446;13.452;2022-11-20T08:03:38;15.80;73.10
19646;DHT22;9971;52.446;13.452;2022-11-20T08:08:40;15.80;72.90
19646;DHT22;9971;52.446;13.452;2022-11-20T08:13:42;15.80;73.50
19646;DHT22;9971;52.446;13.452;2022-11-20T08:18:49;15.80;72.90
19646;DHT22;9971;52.446;13.452;2022-11-20T08:23:52;15.80;73.10
19646;DHT22;9971;52.446;13.452;2022-11-20T08:28:55;15.80;73.30
19646;DHT22;9971;52.446;13.452;2022-11-20T08:33:56;15.70;73.50
19646;DHT22;9971;52.446;13.452;2022-11-20T08:38:58;15.70;74.30
19646;DHT22;9971;52.446;13.452;2022-11-20T08:44:03;15.70;72.90
19646;DHT22;9971;52.446;13.452;2022-11-20T08:49:05;15.70;73.40
19646;DHT22;9971;52.446;13.452;2022-11-20T08:54:06;15.70;74.10
19646;DHT22;9971;52.446;13.452;2022-11-20T08:59:08;15.70;74.70
19646;DHT22;9971;52.446;13.452;2022-11-20T09:04:11;15.70;74.70
19646;DHT22;9971;52.446;13.452;2022-11-20T09:09:13;15.60;73.30
19646;DHT22;9971;52.446;13.452;2022-11-20T09:14:15;15.60;71.70
19646;DHT22;9971;52.446;13.452;2022-11-20T09:19:18;15.50;71.50
19646;DHT22;9971;52.446;13.452;2022-11-20T09:24:20;15.50;73.40
19646;DHT22;9971;52.446;13.452;2022-11-20T09:29:23;15.40;72.90
19646;DHT22;9971;52.446;13.452;2022-11-20T09:34:25;15.40;73.30
19646;DHT22;9971;52.446;13.452;2022-11-20T09:39:28;15.40;73.10
19646;DHT22;9971;52.446;13.452;2022-11-20T09:50:24;15.30;71.20
19646;DHT22;9971;52.446;13.452;2022-11-20T09:55:23;15.30;71.30
19646;DHT22;9971;52.446;13.452;2022-11-20T10:00:25;15.30;72.30
19646;DHT22;9971;52.446;13.452;2022-11-20T10:05:35;15.30;72.80
19646;DHT22;9971;52.446;13.452;2022-11-20T10:10:40;15.20;73.80
19646;DHT22;9971;52.446;13.452;2022-11-20T10:15:47;15.20;73.30
19646;DHT22;9971;52.446;13.452;2022-11-20T10:20:55;15.10;72.20
19646;DHT22;9971;52.446;13.452;2022-11-20T10:26:01;15.00;73.10
19646;DHT22;9971;52.446;13.452;2022-11-20T10:31:02;15.00;73.50
19646;DHT22;9971;52.446;13.452;2022-11-20T10:36:09;15.00;73.80
19646;DHT22;9971;52.446;13.452;2022-11-20T10:41:13;15.00;73.80
19646;DHT22;9971;52.446;13.452;2022-11-20T10:46:19;15.00;73.70
19646;DHT22;9971;52.446;13.452;2022-11-20T10:51:29;15.00;73.50
19646;DHT22;9971;52.446;13.452;2022-11-20T10:56:27;14.90;74.70
19646;DHT22;9971;52.446;13.452;2022-11-20T11:01:26;14.90;73.70
19646;DHT22;9971;52.446;13.452;2022-11-20T11:06:36;14.90;74.50
19646;DHT22;9971;52.446;13.452;2022-11-20T11:11:37;14.80;74.60
19646;DHT22;9971;52.446;13.452;2022-11-20T11:16:52;14.90;75.70
19646;DHT22;9971;52.446;13.452;2022-11-20T11:21:54;14.90;76.10
19646;DHT22;9971;52.446;13.452;2022-11-20T11:26:59;14.90;76.10
19646;DHT22;9971;52.446;13.452;2022-11-20T11:32:04;15.00;76.40
19646;DHT22;9971;52.446;13.452;2022-11-20T11:37:10;15.00;76.70
19646;DHT22;9971;52.446;13.452;2022-11-20T11:42:07;15.10;77.00
19646;DHT22;9971;52.446;13.452;2022-11-20T11:47:26;15.00;75.60
19646;DHT22;9971;52.446;13.452;2022-11-20T11:52:27;15.00;75.80
19646;DHT22;9971;52.446;13.452;2022-11-20T11:57:41;15.00;74.80
19646;DHT22;9971;52.446;13.452;2022-11-20T12:02:37;15.00;74.20
19646;DHT22;9971;52.446;13.452;2022-11-20T12:07:39;14.90;75.80
19646;DHT22;9971;52.446;13.452;2022-11-20T12:12:41;14.90;76.00
19646;DHT22;9971;52.446;13.452;2022-11-20T12:17:42;14.80;74.90
19646;DHT22;9971;52.446;13.452;2022-11-20T12:22:54;14.80;75.00
19646;DHT22;9971;52.446;13.452;2022-11-20T12:28:26;14.70;75.60
19646;DHT22;9971;52.446;13.452;2022-11-20T12:33:31;14.80;76.30
19646;DHT22;9971;52.446;13.452;2022-11-20T12:38:36;14.80;76.50
19646;DHT22;9971;52.446;13.452;2022-11-20T12:43:53;14.70;76.00
19646;DHT22;9971;52.446;13.452;2022-11-20T12:49:03;14.70;76.70
19646;DHT22;9971;52.446;13.452;2022-11-20T12:54:34;14.80;77.40
19646;DHT22;9971;52.446;13.452;2022-11-20T13:00:00;14.80;77.30
19646;DHT22;9971;52.446;13.452;2022-11-20T13:05:19;14.80;77.30
19646;DHT22;9971;52.446;13.452;2022-11-20T13:10:29;14.80;77.40
19646;DHT22;9971;52.446;13.452;2022-11-20T13:20:34;14.80;77.20
19646;DHT22;9971;52.446;13.452;2022-11-20T13:25:38;14.70;78.20
19646;DHT22;9971;52.446;13.452;2022-11-20T13:30:49;14.60;77.60
19646;DHT22;9971;52.446;13.452;2022-11-20T13:35:56;14.60;78.60
19646;DHT22;9971;52.446;13.452;2022-11-20T13:40:58;14.60;78.50
19646;DHT22;9971;52.446;13.452;2022-11-20T13:46:00;14.60;78.80
19646;DHT22;9971;52.446;13.452;2022-11-20T13:51:04;14.50;78.70
19646;DHT22;9971;52.446;13.452;2022-11-20T13:56:08;14.50;80.00
19646;DHT22;9971;52.446;13.452;2022-11-20T14:01:09;12.10;81.30
19646;DHT22;9971;52.446;13.452;2022-11-20T14:06:11;5.70;99.90
19646;DHT22;9971;52.446;13.452;2022-11-20T14:11:17;4.20;99.90
19646;DHT22;9971;52.446;13.452;2022-11-20T14:16:20;4.50;99.90
19646;DHT22;9971;52.446;13.452;2022-11-20T14:21:25;5.50;99.90
19646;DHT22;9971;52.446;13.452;2022-11-20T14:26:26;6.50;99.90
19646;DHT22;9971;52.446;13.452;2022-11-20T14:31:29;7.40;99.90
19646;DHT22;9971;52.446;13.452;2022-11-20T14:36:31;8.10;99.90
19646;DHT22;9971;52.446;13.452;2022-11-20T14:41:33;8.70;99.90
19646;DHT22;9971;52.446;13.452;2022-11-20T14:46:35;9.40;99.90
19646;DHT22;9971;52.446;13.452;2022-11-20T14:51:38;9.90;99.90
19646;DHT22;9971;52.446;13.452;2022-11-20T14:56:39;10.30;99.90
19646;DHT22;9971;52.446;13.452;2022-11-20T15:01:42;10.70;99.90
19646;DHT22;9971;52.446;13.452;2022-11-20T15:06:50;11.00;99.90
19646;DHT22;9971;52.446;13.452;2022-11-20T15:11:54;11.30;99.90
19646;DHT22;9971;52.446;13.452;2022-11-20T15:16:54;11.60;99.90
19646;DHT22;9971;52.446;13.452;2022-11-20T15:21:57;11.80;99.90
19646;DHT22;9971;52.446;13.452;2022-11-20T15:26:59;12.00;99.90
19646;DHT22;9971;52.446;13.452;2022-11-20T15:32:02;12.20;99.90
19646;DHT22;9971;52.446;13.452;2022-11-20T15:37:04;12.30;99.90
19646;DHT22;9971;52.446;13.452;2022-11-20T15:42:06;12.50;99.90
19646;DHT22;9971;52.446;13.452;2022-11-20T15:47:09;12.60;99.90
19646;DHT22;9971;52.446;13.452;2022-11-20T15:52:11;12.80;99.90
19646;DHT22;9971;52.446;13.452;2022-11-20T15:57:13;12.90;99.90
19646;DHT22;9971;52.446;13.452;2022-11-20T16:02:16;13.10;99.90
19646;DHT22;9971;52.446;13.452;2022-11-20T16:07:18;13.10;99.90
19646;DHT22;9971;52.446;13.452;2022-11-20T16:12:21;13.20;99.90
19646;DHT22;9971;52.446;13.452;2022-11-20T16:17:40;13.30;99.90
19646;DHT22;9971;52.446;13.452;2022-11-20T16:22:44;13.30;99.90
19646;DHT22;9971;52.446;13.452;2022-11-20T16:27:47;13.40;99.90
19646;DHT22;9971;52.446;13.452;2022-11-20T16:32:49;13.50;98.80
19646;DHT22;9971;52.446;13.452;2022-11-20T16:37:52;13.60;97.70
19646;DHT22;9971;52.446;13.452;2022-11-20T16:42:54;13.60;96.80
19646;DHT22;9971;52.446;13.452;2022-11-20T16:47:56;13.60;96.30
19646;DHT22;9971;52.446;13.452;2022-11-20T16:52:59;13.70;95.40
19646;DHT22;9971;52.446;13.452;2022-11-20T16:58:01;13.80;95.90
19646;DHT22;9971;52.446;13.452;2022-11-20T17:03:04;13.80;95.30
19646;DHT22;9971;52.446;13.452;2022-11-20T17:08:06;13.90;95.10
19646;DHT22;9971;52.446;13.452;2022-11-20T17:13:08;13.90;94.90
19646;DHT22;9971;52.446;13.452;2022-11-20T17:18:11;14.00;94.20
19646;DHT22;9971;52.446;13.452;2022-11-20T17:23:13;14.10;94.00
19646;DHT22;9971;52.446;13.452;2022-11-20T17:28:16;14.10;93.80
19646;DHT22;9971;52.446;13.452;2022-11-20T17:33:18;14.10;93.50
19646;DHT22;9971;52.446;13.452;2022-11-20T17:38:20;14.20;93.80
19646;DHT22;9971;52.446;13.452;2022-11-20T17:43:23;14.20;94.40
19646;DHT22;9971;52.446;13.452;2022-11-20T17:48:26;14.30;94.30
19646;DHT22;9971;52.446;13.452;2022-11-20T17:53:31;14.30;93.90
19646;DHT22;9971;52.446;13.452;2022-11-20T17:58:30;14.40;93.40
19646;DHT22;9971;52.446;13.452;2022-11-20T18:03:32;14.40;93.50
19646;DHT22;9971;52.446;13.452;2022-11-20T18:08:35;14.40;92.90
19646;DHT22;9971;52.446;13.452;2022-11-20T18:13:38;14.50;92.90
19646;DHT22;9971;52.446;13.452;2022-11-20T18:18:55;14.50;92.60
19646;DHT22;9971;52.446;13.452;2022-11-20T18:23:56;14.60;92.10
19646;DHT22;9971;52.446;13.452;2022-11-20T18:28:58;14.60;91.60
19646;DHT22;9971;52.446;13.452;2022-11-20T18:34:01;14.60;91.30
19646;DHT22;9971;52.446;13.452;2022-11-20T18:39:03;14.60;91.20
19646;DHT22;9971;52.446;13.452;2022-11-20T18:44:06;14.70;90.90
19646;DHT22;9971;52.446;13.452;2022-11-20T18:49:12;14.70;89.80
19646;DHT22;9971;52.446;13.452;2022-11-20T18:54:15;14.70;89.40
19646;DHT22;9971;52.446;13.452;2022-11-20T18:59:17;14.70;88.80
19646;DHT22;9971;52.446;13.452;2022-11-20T19:04:19;14.70;87.70
19646;DHT22;9971;52.446;13.452;2022-11-20T19:09:22;14.70;87.20
19646;DHT22;9971;52.446;13.452;2022-11-20T19:14:24;14.70;86.10
19646;DHT22;9971;52.446;13.452;2022-11-20T19:19:26;14.70;86.30
19646;DHT22;9971;52.446;13.452;2022-11-20T19:24:28;14.70;86.30
19646;DHT22;9971;52.446;13.452;2022-11-20T19:29:30;14.80;85.20
19646;DHT22;9971;52.446;13.452;2022-11-20T19:34:33;14.70;84.40
19646;DHT22;9971;52.446;13.452;2022-11-20T19:39:35;14.80;83.90
19646;DHT22;9971;52.446;13.452;2022-11-20T19:44:38;14.80;84.20
19646;DHT22;9971;52.446;13.452;2022-11-20T19:49:40;14.80;84.30
19646;DHT22;9971;52.446;13.452;2022-11-20T19:54:42;14.80;83.80
19646;DHT22;9971;52.446;13.452;2022-11-20T19:59:45;14.80;83.60
19646;DHT22;9971;52.446;13.452;2022-11-20T20:04:47;14.80;83.30
19646;DHT22;9971;52.446;13.452;2022-11-20T20:09:50;14.80;83.40
19646;DHT22;9971;52.446;13.452;2022-11-20T20:14:52;14.80;82.80
19646;DHT22;9971;52.446;13.452;2022-11-20T20:19:55;14.80;83.40
19646;DHT22;9971;52.446;13.452;2022-11-20T20:24:57;14.80;83.40
19646;DHT22;9971;52.446;13.452;2022-11-20T20:30:00;14.80;82.10
19646;DHT22;9971;52.446;13.452;2022-11-20T20:35:02;14.80;81.20
19646;DHT22;9971;52.446;13.452;2022-11-20T20:40:05;14.80;81.30
19646;DHT22;9971;52.446;13.452;2022-11-20T20:45:08;14.80;81.70
19646;DHT22;9971;52.446;13.452;2022-11-20T20:50:10;14.90;82.10
19646;DHT22;9971;52.446;13.452;2022-11-20T20:55:12;14.80;82.60
19646;DHT22;9971;52.446;13.452;2022-11-20T21:00:15;14.90;83.60
19646;DHT22;9971;52.446;13.452;2022-11-20T21:05:17;14.90;83.20
19646;DHT22;9971;52.446;13.452;2022-11-20T21:10:20;14.90;82.90
19646;DHT22;9971;52.446;13.452;2022-11-20T21:15:22;14.90;83.50
19646;DHT22;9971;52.446;13.452;2022-11-20T21:20:25;14.90;82.90
19646;DHT22;9971;52.446;13.452;2022-11-20T21:25:34;14.90;83.20
19646;DHT22;9971;52.446;13.452;2022-11-20T21:30:35;14.90;83.10
19646;DHT22;9971;52.446;13.452;2022-11-20T21:35:37;15.00;83.20
19646;DHT22;9971;52.446;13.452;2022-11-20T21:40:39;15.00;83.40
19646;DHT22;9971;52.446;13.452;2022-11-20T21:45:42;15.00;83.90
19646;DHT22;9971;52.446;13.452;2022-11-20T21:50:44;15.00;84.40
19646;DHT22;9971;52.446;13.452;2022-11-20T21:55:53;15.00;84.50
19646;DHT22;9971;52.446;13.452;2022-11-20T22:00:54;15.00;84.60
19646;DHT22;9971;52.446;13.452;2022-11-20T22:05:57;15.00;84.90
19646;DHT22;9971;52.446;13.452;2022-11-20T22:10:59;15.00;86.70
19646;DHT22;9971;52.446;13.452;2022-11-20T22:16:01;15.00;87.50
19646;DHT22;9971;52.446;13.452;2022-11-20T22:21:04;15.00;89.30
19646;DHT22;9971;52.446;13.452;2022-11-20T22:26:07;14.90;90.30
19646;DHT22;9971;52.446;13.452;2022-11-20T22:31:08;15.00;90.90
19646;DHT22;9971;52.446;13.452;2022-11-20T22:36:13;15.00;91.20
19646;DHT22;9971;52.446;13.452;2022-11-20T22:41:15;15.00;91.70
19646;DHT22;9971;52.446;13.452;2022-11-20T22:46:17;15.00;92.20
19646;DHT22;9971;52.446;13.452;2022-11-20T22:51:20;15.00;92.70
19646;DHT22;9971;52.446;13.452;2022-11-20T22:56:21;15.00;93.60
19646;DHT22;9971;52.446;13.452;2022-11-20T23:01:24;15.00;94.40
19646;DHT22;9971;52.446;13.452;2022-11-20T23:06:26;15.00;95.40
19646;DHT22;9971;52.446;13.452;2022-11-20T23:11:28;15.00;96.30
19646;DHT22;9971;52.446;13.452;2022-11-20T23:16:30;15.00;96.70
19646;DHT22;9971;52.446;13.452;2022-11-20T23:21:32;15.00;96.60
19646;DHT22;9971;52.446;13.452;2022-11-20T23:26:34;15.00;96.20
19646;DHT22;9971;52.446;13.452;2022-11-20T23:31:36;15.00;96.30
19646;DHT22;9971;52.446;13.452;2022-11-20T23:36:38;15.00;96.40
19646;DHT22;9971;52.446;13.452;2022-11-20T23:41:41;14.90;96.30
19646;DHT22;9971;52.446;13.452;2022-11-20T23:46:43;15.00;96.50
19646;DHT22;9971;52.446;13.452;2022-11-20T23:51:46;15.00;96.90
19646;DHT22;9971;52.446;13.452;2022-11-20T23:56:48;14.90;97.60
